createdAt,value
2022-11-22T00:00:28.023Z,97874.69
2022-11-22T00:02:54.976Z,97874.94
2022-11-22T00:05:22.183Z,97877.06
2022-11-22T00:07:49.130Z,97875.75
2022-11-22T00:10:16.186Z,97877.84
2022-11-22T00:12:42.940Z,97884.81
2022-11-22T00:15:11.038Z,97878.16
2022-11-22T00:17:38.189Z,97886.13
2022-11-22T00:20:06.928Z,97887.13
2022-11-22T00:22:34.078Z,97886.91
2022-11-22T00:25:01.023Z,97894.66
2022-11-22T00:27:27.883Z,97880.72
2022-11-22T00:29:54.677Z,97873.06
2022-11-22T00:32:21.535Z,97872.59
2022-11-22T00:34:48.360Z,97872.06
2022-11-22T00:37:15.258Z,97869.59
2022-11-22T00:39:43.334Z,97870.66
2022-11-22T00:42:10.101Z,97870.16
2022-11-22T00:44:36.912Z,97862.63
2022-11-22T00:47:03.909Z,97856.53
2022-11-22T00:49:31.100Z,97862.94
2022-11-22T00:51:58.151Z,97858.59
2022-11-22T00:54:25.168Z,97865.78
2022-11-22T00:56:51.933Z,97868.53
2022-11-22T00:59:18.741Z,97854.41
2022-11-22T01:01:45.588Z,97867.03
2022-11-22T01:04:12.492Z,97862.38
2022-11-22T01:06:39.432Z,97860.97
2022-11-22T01:09:06.238Z,97859.28
2022-11-22T01:11:33.123Z,97863.53
2022-11-22T01:14:00.944Z,97856.59
2022-11-22T01:16:27.698Z,97857.81
2022-11-22T01:18:54.421Z,97853.34
2022-11-22T01:21:21.246Z,97855.25
2022-11-22T01:23:48.144Z,97863.22
2022-11-22T01:26:14.903Z,97860.41
2022-11-22T01:28:41.778Z,97857.97
2022-11-22T01:31:09.699Z,97856.69
2022-11-22T01:33:36.559Z,97861.16
2022-11-22T01:36:03.551Z,97852.16
2022-11-22T01:38:30.299Z,97855.00
2022-11-22T01:40:57.026Z,97847.81
2022-11-22T01:43:25.659Z,97847.81
2022-11-22T01:45:57.150Z,97846.50
2022-11-22T01:48:52.189Z,97841.81
2022-11-22T01:51:41.222Z,97840.97
2022-11-22T01:54:11.833Z,97843.63
2022-11-22T01:56:39.248Z,97842.50
2022-11-22T01:59:10.093Z,97846.81
2022-11-22T02:01:36.848Z,97850.56
2022-11-22T02:04:05.415Z,97850.22
2022-11-22T02:07:00.558Z,97849.13
2022-11-22T02:09:28.264Z,97842.72
2022-11-22T02:11:57.340Z,97851.00
2022-11-22T02:14:26.120Z,97849.91
2022-11-22T02:16:53.061Z,97845.81
2022-11-22T02:19:27.089Z,97844.72
2022-11-22T02:21:56.248Z,97845.97
2022-11-22T02:24:42.242Z,97848.44
2022-11-22T02:27:09.069Z,97856.16
2022-11-22T02:29:36.721Z,97861.13
2022-11-22T02:32:03.564Z,97854.72
2022-11-22T02:34:30.394Z,97858.75
2022-11-22T02:36:57.266Z,97853.25
2022-11-22T02:39:29.187Z,97855.09
2022-11-22T02:41:56.475Z,97857.28
2022-11-22T02:44:23.632Z,97849.28
2022-11-22T02:46:53.367Z,97846.41
2022-11-22T02:49:22.436Z,97848.53
2022-11-22T02:51:49.852Z,97853.94
2022-11-22T02:54:17.031Z,97845.88
2022-11-22T02:56:43.964Z,97846.34
2022-11-22T02:59:10.940Z,97844.81
2022-11-22T03:01:38.058Z,97842.16
2022-11-22T03:04:05.091Z,97848.47
2022-11-22T03:06:31.943Z,97836.75
2022-11-22T03:08:58.831Z,97843.13
2022-11-22T03:11:25.594Z,97840.44
2022-11-22T03:13:52.480Z,97833.69
2022-11-22T03:16:19.274Z,97838.31
2022-11-22T03:18:46.320Z,97837.16
2022-11-22T03:21:13.099Z,97851.84
2022-11-22T03:23:40.110Z,97851.00
2022-11-22T03:26:11.118Z,97845.47
2022-11-22T03:28:37.941Z,97849.81
2022-11-22T03:31:06.683Z,97843.94
2022-11-22T03:33:34.961Z,97837.81
2022-11-22T03:36:02.050Z,97840.50
2022-11-22T03:38:29.048Z,97839.28
2022-11-22T03:40:55.892Z,97841.69
2022-11-22T03:43:23.093Z,97835.50
2022-11-22T03:45:49.923Z,97830.72
2022-11-22T03:48:16.733Z,97838.94
2022-11-22T03:50:43.638Z,97839.66
2022-11-22T03:53:10.507Z,97828.75
2022-11-22T03:55:37.485Z,97830.09
2022-11-22T03:58:04.592Z,97822.59
2022-11-22T04:00:32.245Z,97824.97
2022-11-22T04:02:59.251Z,97826.34
2022-11-22T04:05:26.168Z,97820.16
2022-11-22T04:07:58.895Z,97824.16
2022-11-22T04:10:26.471Z,97819.84
2022-11-22T04:12:57.503Z,97815.34
2022-11-22T04:15:25.014Z,97816.59
2022-11-22T04:17:51.731Z,97820.19
2022-11-22T04:20:40.069Z,97815.09
2022-11-22T04:23:09.547Z,97821.81
2022-11-22T04:25:38.979Z,97818.09
2022-11-22T04:28:07.804Z,97826.41
2022-11-22T04:30:53.404Z,97824.72
2022-11-22T04:33:20.927Z,97822.75
2022-11-22T04:35:48.627Z,97814.47
2022-11-22T04:38:16.685Z,97816.03
2022-11-22T04:40:43.576Z,97817.94
2022-11-22T04:43:50.627Z,97816.53
2022-11-22T04:46:17.428Z,97820.50
2022-11-22T04:48:44.187Z,97811.16
2022-11-22T04:51:33.014Z,97811.44
2022-11-22T04:53:59.861Z,97817.06
2022-11-22T04:56:26.717Z,97809.34
2022-11-22T04:58:54.578Z,97809.69
2022-11-22T05:01:21.688Z,97806.69
2022-11-22T05:03:48.502Z,97810.13
2022-11-22T05:06:16.447Z,97808.06
2022-11-22T05:08:43.277Z,97817.72
2022-11-22T05:11:10.055Z,97810.00
2022-11-22T05:13:38.804Z,97811.69
2022-11-22T05:16:07.303Z,97809.84
2022-11-22T05:18:34.425Z,97809.16
2022-11-22T05:21:14.807Z,97815.69
2022-11-22T05:23:56.956Z,97802.03
2022-11-22T05:26:29.226Z,97813.19
2022-11-22T05:28:59.919Z,97806.88
2022-11-22T05:31:28.109Z,97808.22
2022-11-22T05:33:57.211Z,97808.94
2022-11-22T05:36:24.633Z,97809.47
2022-11-22T05:38:51.881Z,97818.44
2022-11-22T05:41:18.994Z,97813.84
2022-11-22T05:43:45.796Z,97809.06
2022-11-22T05:46:12.521Z,97813.81
2022-11-22T05:48:42.229Z,97819.63
2022-11-22T05:51:13.667Z,97807.19
2022-11-22T05:53:41.126Z,97818.44
2022-11-22T05:56:16.266Z,97818.75
2022-11-22T05:58:43.413Z,97818.81
2022-11-22T06:01:13.433Z,97816.66
2022-11-22T06:03:40.585Z,97821.13
2022-11-22T06:06:08.036Z,97821.13
2022-11-22T06:08:36.947Z,97820.25
2022-11-22T06:11:13.382Z,97818.00
2022-11-22T06:13:41.530Z,97824.34
2022-11-22T06:16:09.102Z,97818.72
2022-11-22T06:18:36.304Z,97820.59
2022-11-22T06:21:05.454Z,97816.03
2022-11-22T06:23:32.264Z,97807.94
2022-11-22T06:26:00.814Z,97811.28
2022-11-22T06:28:29.279Z,97812.81
2022-11-22T06:31:01.904Z,97810.47
2022-11-22T06:33:28.850Z,97806.53
2022-11-22T06:36:05.139Z,97805.06
2022-11-22T06:38:32.814Z,97802.78
2022-11-22T06:41:08.248Z,97804.59
2022-11-22T06:43:36.399Z,97800.00
2022-11-22T06:46:03.989Z,97799.41
2022-11-22T06:48:32.280Z,97797.81
2022-11-22T06:51:20.040Z,97800.31
2022-11-22T06:53:49.207Z,97810.38
2022-11-22T06:56:20.151Z,97804.47
2022-11-22T06:58:47.936Z,97799.44
2022-11-22T07:01:17.559Z,97806.34
2022-11-22T07:03:44.972Z,97797.69
2022-11-22T07:06:13.787Z,97792.63
2022-11-22T07:08:41.264Z,97800.56
2022-11-22T07:11:10.509Z,97793.41
2022-11-22T07:13:37.706Z,97802.78
2022-11-22T07:16:06.849Z,97793.28
2022-11-22T07:18:34.242Z,97800.03
2022-11-22T07:21:05.677Z,97789.78
2022-11-22T07:23:35.060Z,97790.91
2022-11-22T07:26:01.802Z,97799.47
2022-11-22T07:28:28.631Z,97788.53
2022-11-22T07:31:00.677Z,97800.81
2022-11-22T07:33:28.016Z,97788.72
2022-11-22T07:35:55.047Z,97787.78
2022-11-22T07:38:22.034Z,97783.72
2022-11-22T07:40:48.997Z,97783.63
2022-11-22T07:43:15.865Z,97783.47
2022-11-22T07:45:42.626Z,97792.78
2022-11-22T07:48:09.548Z,97791.56
2022-11-22T07:50:36.447Z,97785.09
2022-11-22T07:53:03.253Z,97787.59
2022-11-22T07:55:31.469Z,97784.25
2022-11-22T07:58:01.572Z,97787.59
2022-11-22T08:00:29.151Z,97790.63
2022-11-22T08:02:55.884Z,97788.72
2022-11-22T08:05:22.794Z,97791.81
2022-11-22T08:07:51.082Z,97792.63
2022-11-22T08:10:18.563Z,97797.56
2022-11-22T08:12:45.775Z,97789.53
2022-11-22T08:15:14.030Z,97794.69
2022-11-22T08:17:40.944Z,97798.94
2022-11-22T08:20:11.296Z,97798.31
2022-11-22T08:22:39.128Z,97800.72
2022-11-22T08:25:08.945Z,97792.88
2022-11-22T08:27:38.472Z,97790.97
2022-11-22T08:30:05.517Z,97797.19
2022-11-22T08:32:32.372Z,97797.97
2022-11-22T08:34:59.140Z,97802.06
2022-11-22T08:37:25.883Z,97793.41
2022-11-22T08:39:52.707Z,97803.34
2022-11-22T08:42:19.633Z,97803.50
2022-11-22T08:44:46.392Z,97800.50
2022-11-22T08:47:13.159Z,97804.53
2022-11-22T08:49:39.957Z,97811.66
2022-11-22T08:52:06.764Z,97802.56
2022-11-22T08:54:37.485Z,97806.78
2022-11-22T08:57:04.983Z,97804.81
2022-11-22T08:59:32.557Z,97815.31
2022-11-22T09:01:59.676Z,97816.63
2022-11-22T09:04:26.548Z,97811.00
2022-11-22T09:09:40.361Z,97807.81
2022-11-22T09:12:07.547Z,97805.94
2022-11-22T09:14:34.507Z,97809.56
2022-11-22T09:17:01.314Z,97806.19
2022-11-22T09:19:28.558Z,97807.00
2022-11-22T09:21:55.946Z,97809.16
2022-11-22T09:24:22.798Z,97811.16
2022-11-22T09:26:49.700Z,97815.78
2022-11-22T09:29:16.611Z,97818.44
2022-11-22T09:31:43.771Z,97809.81
2022-11-22T09:34:10.755Z,97809.31
2022-11-22T09:36:37.579Z,97812.38
2022-11-22T09:39:04.410Z,97803.28
2022-11-22T09:41:49.288Z,97803.22
2022-11-22T09:44:56.775Z,97794.81
2022-11-22T09:47:37.016Z,97793.28
2022-11-22T09:50:22.173Z,97785.75
2022-11-22T09:52:51.883Z,97789.97
2022-11-22T09:55:30.911Z,97785.06
2022-11-22T09:58:31.918Z,97790.44
2022-11-22T10:01:05.660Z,97778.84
2022-11-22T10:03:42.739Z,97782.16
2022-11-22T10:06:17.311Z,97791.50
2022-11-22T10:08:54.557Z,97785.91
2022-11-22T10:12:07.541Z,97786.41
2022-11-22T10:14:52.254Z,97788.47
2022-11-22T10:17:47.682Z,97776.78
2022-11-22T10:20:25.761Z,97778.44
2022-11-22T10:22:52.965Z,97770.50
2022-11-22T10:25:21.451Z,97765.06
2022-11-22T10:27:57.614Z,97759.97
2022-11-22T10:30:30.647Z,97752.91
2022-11-22T10:33:12.311Z,97763.34
2022-11-22T10:36:05.074Z,97767.91
2022-11-22T10:39:13.314Z,97762.25
2022-11-22T10:41:55.220Z,97756.63
2022-11-22T10:44:41.002Z,97749.75
2022-11-22T10:47:30.265Z,97743.88
2022-11-22T10:50:09.367Z,97744.91
2022-11-22T10:53:00.312Z,97747.25
2022-11-22T10:55:27.767Z,97745.69
2022-11-22T10:58:01.144Z,97749.78
2022-11-22T11:00:30.182Z,97748.00
2022-11-22T11:03:02.919Z,97748.47
2022-11-22T11:11:33.664Z,97731.69
2022-11-22T11:14:08.946Z,97724.91
2022-11-22T11:16:37.069Z,97715.53
2022-11-22T11:19:06.889Z,97722.44
2022-11-22T11:21:35.934Z,97722.44
2022-11-22T11:24:03.102Z,97717.97
2022-11-22T11:26:33.000Z,97716.75
2022-11-22T11:29:39.868Z,97727.25
2022-11-22T11:32:16.269Z,97724.84
2022-11-22T11:34:51.327Z,97725.91
2022-11-22T11:37:33.135Z,97725.44
2022-11-22T11:40:00.222Z,97718.44
2022-11-22T11:42:31.920Z,97719.03
2022-11-22T11:45:21.432Z,97715.78
2022-11-22T11:47:48.322Z,97715.28
2022-11-22T11:50:28.782Z,97709.41
2022-11-22T11:53:06.848Z,97704.03
2022-11-22T11:55:35.732Z,97699.19
2022-11-22T11:58:04.244Z,97694.09
2022-11-22T12:00:39.347Z,97691.63
2022-11-22T12:03:07.868Z,97686.63
2022-11-22T12:05:34.700Z,97684.75
2022-11-22T12:08:01.986Z,97688.97
2022-11-22T12:10:50.081Z,97691.00
2022-11-22T12:13:32.284Z,97682.41
2022-11-22T12:16:22.489Z,97681.34
2022-11-22T12:19:14.268Z,97685.88
2022-11-22T12:21:52.576Z,97687.84
2022-11-22T12:24:48.767Z,97691.84
2022-11-22T12:27:15.344Z,97691.91
2022-11-22T12:29:44.606Z,97694.34
2022-11-22T12:32:15.113Z,97681.50
2022-11-22T12:35:05.869Z,97674.56
2022-11-22T12:37:52.951Z,97679.59
2022-11-22T12:40:42.248Z,97678.19
2022-11-22T12:43:40.728Z,97668.28
2022-11-22T12:46:18.700Z,97672.88
2022-11-22T12:48:49.889Z,97676.75
2022-11-22T12:51:38.332Z,97667.16
2022-11-22T12:54:08.629Z,97671.09
2022-11-22T12:56:47.157Z,97671.91
2022-11-22T12:59:35.860Z,97667.69
2022-11-22T13:02:12.494Z,97674.13
2022-11-22T13:05:13.510Z,97676.00
2022-11-22T13:07:53.378Z,97674.66
2022-11-22T13:11:03.818Z,97669.59
2022-11-22T13:13:53.883Z,97663.72
2022-11-22T13:16:20.837Z,97669.81
2022-11-22T13:19:04.424Z,97662.56
2022-11-22T13:21:39.430Z,97660.41
2022-11-22T13:24:06.179Z,97655.59
2022-11-22T13:26:45.677Z,97656.97
2022-11-22T13:29:27.559Z,97654.63
2022-11-22T13:32:05.394Z,97663.72
2022-11-22T13:34:34.011Z,97659.16
2022-11-22T13:37:09.746Z,97652.97
2022-11-22T13:39:42.387Z,97656.16
2022-11-22T13:42:12.855Z,97654.00
2022-11-22T13:44:51.264Z,97656.47
2022-11-22T13:47:24.220Z,97658.06
2022-11-22T13:49:54.725Z,97654.03
2022-11-22T13:52:21.448Z,97656.03
2022-11-22T13:54:48.328Z,97655.91
2022-11-22T13:57:30.331Z,97659.09
2022-11-22T14:00:12.546Z,97653.28
2022-11-22T14:02:44.029Z,97655.63
2022-11-22T14:05:25.768Z,97651.09
2022-11-22T14:07:54.931Z,97646.03
2022-11-22T14:10:52.298Z,97641.53
2022-11-22T14:13:34.094Z,97633.50
2022-11-22T14:16:12.420Z,97640.22
2022-11-22T14:18:48.247Z,97629.81
2022-11-22T14:21:44.546Z,97629.28
2022-11-22T14:24:28.956Z,97620.22
2022-11-22T14:27:12.760Z,97616.22
2022-11-22T14:29:53.772Z,97613.31
2022-11-22T14:32:23.033Z,97603.97
2022-11-22T14:35:04.901Z,97606.38
2022-11-22T14:37:31.965Z,97594.91
2022-11-22T14:40:01.695Z,97591.72
2022-11-22T14:42:37.883Z,97597.84
2022-11-22T14:45:10.700Z,97601.28
2022-11-22T14:47:52.682Z,97603.38
2022-11-22T14:50:22.513Z,97592.19
2022-11-22T14:52:49.808Z,97588.94
2022-11-22T14:55:31.145Z,97596.09
2022-11-22T14:58:01.857Z,97590.31
2022-11-22T15:00:56.138Z,97591.94
2022-11-22T15:03:44.378Z,97591.69
2022-11-22T15:09:15.079Z,97588.97
2022-11-22T15:09:52.245Z,97600.97
2022-11-22T15:12:32.253Z,97600.44
2022-11-22T15:59:02.962Z,97556.53
2022-11-22T16:01:29.880Z,97549.25
2022-11-22T16:03:58.456Z,97549.25
2022-11-22T16:06:27.125Z,97536.66
2022-11-22T16:08:58.910Z,97544.38
2022-11-22T16:11:32.894Z,97538.72
2022-11-22T16:14:00.117Z,97538.19
2022-11-22T16:16:31.622Z,97544.59
2022-11-22T16:19:21.416Z,97538.97
2022-11-22T16:22:01.909Z,97530.13
2022-11-22T16:24:30.306Z,97524.53
2022-11-22T16:26:59.391Z,97529.78
2022-11-22T16:29:32.505Z,97529.63
2022-11-22T16:32:11.186Z,97528.22
2022-11-22T16:34:38.554Z,97519.47
2022-11-22T16:37:30.702Z,97522.44
2022-11-22T16:40:01.578Z,97521.63
2022-11-22T16:42:29.713Z,97525.56
2022-11-22T16:45:02.427Z,97509.59
2022-11-22T16:47:30.818Z,97509.19
2022-11-22T16:49:57.783Z,97504.72
2022-11-22T16:52:25.089Z,97506.03
2022-11-22T16:54:51.994Z,97494.06
2022-11-22T16:57:18.836Z,97508.56
2022-11-22T16:59:45.624Z,97508.72
2022-11-22T17:02:14.012Z,97505.34
2022-11-22T17:04:41.616Z,97507.88
2022-11-22T17:07:10.556Z,97502.19
2022-11-22T17:09:37.606Z,97498.63
2022-11-22T17:12:12.644Z,97505.00
2022-11-22T17:14:39.553Z,97503.06
2022-11-22T17:17:06.339Z,97494.75
2022-11-22T17:22:20.136Z,97510.41
2022-11-22T17:24:47.045Z,97507.72
2022-11-22T17:27:14.593Z,97505.06
2022-11-22T17:29:50.402Z,97500.47
2022-11-22T17:32:17.746Z,97502.13
2022-11-22T17:34:44.689Z,97498.59
2022-11-22T17:37:12.510Z,97499.47
2022-11-22T17:39:39.763Z,97491.00
2022-11-22T17:42:06.930Z,97488.78
2022-11-22T17:44:34.274Z,97489.91
2022-11-22T17:47:01.222Z,97483.94
2022-11-22T17:49:28.895Z,97482.09
2022-11-22T17:51:55.985Z,97485.03
2022-11-22T17:54:22.836Z,97479.69
2022-11-22T17:56:49.781Z,97479.28
2022-11-22T17:59:16.602Z,97479.06
2022-11-22T18:01:43.571Z,97476.81
2022-11-22T18:04:10.522Z,97483.41
2022-11-22T18:06:37.400Z,97479.63
2022-11-22T18:09:04.383Z,97478.88
2022-11-22T18:11:31.396Z,97482.91
2022-11-22T18:13:58.231Z,97480.09
2022-11-22T18:16:28.706Z,97489.56
2022-11-22T18:18:57.781Z,97487.50
2022-11-22T18:21:26.228Z,97485.69
2022-11-22T18:23:53.135Z,97481.56
2022-11-22T18:31:54.784Z,97485.19
2022-11-22T18:34:25.385Z,97487.13
2022-11-22T18:37:00.397Z,97482.31
2022-11-22T18:39:37.391Z,97484.53
2022-11-22T18:42:07.242Z,97486.00
2022-11-22T18:44:34.575Z,97480.56
2022-11-22T18:47:01.865Z,97473.31
2022-11-22T18:49:28.834Z,97478.31
2022-11-22T18:51:56.039Z,97482.25
2022-11-22T18:54:23.304Z,97475.97
2022-11-22T18:56:51.077Z,97476.69
2022-11-22T18:59:18.077Z,97476.84
2022-11-22T19:01:45.253Z,97478.72
2022-11-22T19:04:14.152Z,97475.50
2022-11-22T19:06:42.017Z,97471.13
2022-11-22T19:09:09.162Z,97474.97
2022-11-22T19:11:36.212Z,97478.03
2022-11-22T19:14:03.109Z,97477.72
2022-11-22T19:16:30.467Z,97472.50
2022-11-22T19:18:58.490Z,97473.66
2022-11-22T19:21:28.599Z,97471.97
2022-11-22T19:23:56.608Z,97471.50
2022-11-22T19:26:25.763Z,97476.44
2022-11-22T19:28:56.020Z,97475.16
2022-11-22T19:31:29.114Z,97467.13
2022-11-22T19:33:56.538Z,97468.16
2022-11-22T19:36:32.093Z,97470.44
2022-11-22T19:39:00.482Z,97468.34
2022-11-22T19:41:27.539Z,97457.38
2022-11-22T19:43:55.949Z,97459.28
2022-11-22T19:46:23.459Z,97463.22
2022-11-22T19:48:54.857Z,97456.44
2022-11-22T19:51:22.287Z,97463.22
2022-11-22T19:53:49.379Z,97462.44
2022-11-22T19:56:20.039Z,97478.25
2022-11-22T19:58:52.794Z,97474.03
2022-11-22T20:01:21.184Z,97460.31
2022-11-22T20:03:52.874Z,97463.19
2022-11-22T20:06:19.991Z,97463.41
2022-11-22T20:08:47.086Z,97453.63
2022-11-22T20:11:15.999Z,97455.94
2022-11-22T20:13:45.000Z,97466.31
2022-11-22T20:16:31.781Z,97456.25
2022-11-22T20:19:00.390Z,97449.38
2022-11-22T20:21:28.923Z,97459.09
2022-11-22T20:23:56.830Z,97461.75
2022-11-22T20:26:24.248Z,97459.25
2022-11-22T20:29:02.811Z,97462.66
2022-11-22T20:31:31.541Z,97457.34
2022-11-22T20:33:59.604Z,97460.03
2022-11-22T20:36:28.861Z,97448.03
2022-11-22T20:38:56.255Z,97451.19
2022-11-22T20:41:26.064Z,97451.66
2022-11-22T20:43:53.180Z,97452.69
2022-11-22T20:46:27.664Z,97452.44
2022-11-22T20:49:04.336Z,97455.91
2022-11-22T20:51:31.252Z,97457.69
2022-11-22T20:53:58.393Z,97452.94
2022-11-22T20:56:25.488Z,97454.56
2022-11-22T20:58:52.648Z,97454.16
2022-11-22T21:01:25.383Z,97443.69
2022-11-22T21:03:53.075Z,97459.66
2022-11-22T21:06:21.216Z,97453.66
2022-11-22T21:08:48.241Z,97457.00
2022-11-22T21:11:20.320Z,97459.81
2022-11-22T21:13:47.680Z,97463.81
2022-11-22T21:16:36.947Z,97456.72
2022-11-22T21:19:06.823Z,97465.28
2022-11-22T21:21:35.885Z,97454.00
2022-11-22T21:24:04.243Z,97458.31
2022-11-22T21:26:31.657Z,97454.22
2022-11-22T21:28:59.616Z,97446.28
2022-11-22T21:31:27.025Z,97459.44
2022-11-22T21:33:54.226Z,97460.53
2022-11-22T21:36:21.486Z,97468.00
2022-11-22T21:38:48.608Z,97465.81
2022-11-22T21:44:05.247Z,97467.41
2022-11-22T21:46:31.975Z,97458.06
2022-11-22T21:48:58.759Z,97455.66
2022-11-22T21:51:26.553Z,97451.88
2022-11-22T21:54:01.250Z,97462.63
2022-11-22T21:56:28.636Z,97460.13
2022-11-22T21:58:55.819Z,97453.03
2022-11-22T22:01:23.827Z,97460.28
2022-11-22T22:03:51.051Z,97458.56
2022-11-22T22:06:18.758Z,97458.72
2022-11-22T22:08:45.666Z,97453.38
2022-11-22T22:11:13.048Z,97457.66
2022-11-22T22:13:39.954Z,97449.84
2022-11-22T22:16:07.472Z,97450.94
2022-11-22T22:18:36.291Z,97449.63
2022-11-22T22:21:07.692Z,97451.94
2022-11-22T22:23:35.792Z,97448.72
2022-11-22T22:26:05.161Z,97443.59
2022-11-22T22:28:34.093Z,97453.47
2022-11-22T22:31:04.914Z,97448.22
2022-11-22T22:33:32.274Z,97451.88
2022-11-22T22:35:59.944Z,97451.66
2022-11-22T22:38:27.079Z,97455.59
2022-11-22T22:40:55.578Z,97454.78
2022-11-22T22:43:23.556Z,97453.03
2022-11-22T22:45:52.179Z,97453.91
2022-11-22T22:48:19.531Z,97450.03
2022-11-22T22:50:46.283Z,97443.88
2022-11-22T22:53:13.460Z,97448.69
2022-11-22T22:55:40.353Z,97453.34
2022-11-22T22:58:11.594Z,97444.69
2022-11-22T23:00:38.946Z,97434.50
2022-11-22T23:03:05.826Z,97437.88
2022-11-22T23:05:32.649Z,97432.78
2022-11-22T23:07:59.525Z,97434.97
2022-11-22T23:10:26.502Z,97427.63
2022-11-22T23:12:53.302Z,97422.19
2022-11-22T23:15:38.024Z,97415.03
2022-11-22T23:18:07.075Z,97422.13
2022-11-22T23:20:33.837Z,97424.53
2022-11-22T23:23:00.639Z,97421.81
2022-11-22T23:25:27.524Z,97422.09
2022-11-22T23:27:54.571Z,97425.09
2022-11-22T23:30:21.455Z,97430.16
2022-11-22T23:32:48.405Z,97426.94
2022-11-22T23:35:15.235Z,97430.75
2022-11-22T23:37:42.458Z,97429.72
2022-11-22T23:40:10.034Z,97429.84
2022-11-22T23:42:36.813Z,97430.41
2022-11-22T23:45:03.891Z,97428.25
2022-11-22T23:47:30.688Z,97420.84
2022-11-22T23:49:57.464Z,97426.53
2022-11-22T23:52:24.413Z,97420.97
2022-11-22T23:54:51.220Z,97423.41
2022-11-22T23:57:18.112Z,97418.31
2022-11-22T23:59:44.997Z,97419.19
